Terminal Aerodrome Forecast
Issued by NWS

Home | Current Version | Previous Version | Text Only | Print | Product List | Glossary On
Versions: 1 2 3 4 5 6 7 8 9 10 11 12 13 14
000
FTUS46 KMTR 250500
TAFMRY
TAF
KMRY 250534Z 2506/2606 10006KT P6SM SCT250
     FM250800 14005KT P6SM BKN015 BKN200
     FM251300 16008KT P6SM -SHRA BKN015 BKN200
     FM251700 22011G18KT P6SM -SHRA BKN015 OVC025
     FM252000 25010KT P6SM BKN050
     FM260200 28005KT P6SM SCT250=

USA.gov is the U.S. government's official web portal to all federal, state and local government web resources and services.